Terminal Aerodrome Forecast
Issued by NWS

Home | Current Version | Previous Version | Text Only | Print | Product List | Glossary On
Versions: 1 2 3 4 5 6 7 8 9 10 11 12 13 14 15 16
000
FTUS46 KSTO 250500
TAFSCK
TAF
KSCK 250535Z 2506/2606 VRB06KT P6SM BKN200
     FM251200 13008KT P6SM SCT050 OVC100
     FM251700 14012KT P6SM VCSH OVC050
     FM252100 22011G22KT P6SM SCT050 BKN200
     FM260200 30005KT P6SM BKN060=

USA.gov is the U.S. government's official web portal to all federal, state and local government web resources and services.